sensor_id;sensor_type;location;lat;lon;timestamp;pressure;altitude;pressure_sealevel;temperature;humidity
41140;BME280;26881;48.784;9.192;2022-11-18T00:05:19;96792.09;;;8.88;100.00
41140;BME280;26881;48.784;9.192;2022-11-18T00:10:41;96785.97;;;8.99;100.00
41140;BME280;26881;48.784;9.192;2022-11-18T00:16:05;96788.97;;;8.94;100.00
41140;BME280;26881;48.784;9.192;2022-11-18T00:21:27;96785.28;;;8.97;100.00
41140;BME280;26881;48.784;9.192;2022-11-18T00:26:49;96779.34;;;8.95;100.00
41140;BME280;26881;48.784;9.192;2022-11-18T00:32:11;96784.44;;;8.96;100.00
41140;BME280;26881;48.784;9.192;2022-11-18T00:37:33;96792.56;;;8.82;100.00
41140;BME280;26881;48.784;9.192;2022-11-18T00:42:55;96792.31;;;8.85;100.00
41140;BME280;26881;48.784;9.192;2022-11-18T00:48:16;96803.66;;;8.95;100.00
41140;BME280;26881;48.784;9.192;2022-11-18T00:53:42;96797.13;;;9.01;100.00
41140;BME280;26881;48.784;9.192;2022-11-18T00:59:04;96796.53;;;8.97;100.00
41140;BME280;26881;48.784;9.192;2022-11-18T01:04:25;96797.94;;;9.01;100.00
41140;BME280;26881;48.784;9.192;2022-11-18T01:09:47;96799.38;;;8.94;100.00
41140;BME280;26881;48.784;9.192;2022-11-18T01:15:09;96794.78;;;8.98;100.00
41140;BME280;26881;48.784;9.192;2022-11-18T01:20:31;96802.00;;;8.94;100.00
41140;BME280;26881;48.784;9.192;2022-11-18T01:25:54;96805.06;;;8.99;100.00
41140;BME280;26881;48.784;9.192;2022-11-18T01:31:17;96799.03;;;8.99;100.00
41140;BME280;26881;48.784;9.192;2022-11-18T01:36:39;96798.31;;;8.97;100.00
41140;BME280;26881;48.784;9.192;2022-11-18T01:42:01;96812.94;;;8.88;100.00
41140;BME280;26881;48.784;9.192;2022-11-18T01:47:28;96815.75;;;8.96;100.00
41140;BME280;26881;48.784;9.192;2022-11-18T01:52:55;96815.16;;;8.93;100.00
41140;BME280;26881;48.784;9.192;2022-11-18T01:58:44;96836.16;;;8.91;100.00
41140;BME280;26881;48.784;9.192;2022-11-18T02:04:07;96837.59;;;8.84;100.00
41140;BME280;26881;48.784;9.192;2022-11-18T02:09:30;96835.41;;;9.00;100.00
41140;BME280;26881;48.784;9.192;2022-11-18T02:14:52;96842.22;;;9.13;100.00
41140;BME280;26881;48.784;9.192;2022-11-18T02:25:56;96844.72;;;9.14;100.00
41140;BME280;26881;48.784;9.192;2022-11-18T02:31:27;96853.41;;;9.03;100.00
41140;BME280;26881;48.784;9.192;2022-11-18T02:37:00;96847.41;;;8.92;100.00
41140;BME280;26881;48.784;9.192;2022-11-18T02:42:25;96856.84;;;8.93;100.00
41140;BME280;26881;48.784;9.192;2022-11-18T02:47:51;96858.41;;;8.95;100.00
41140;BME280;26881;48.784;9.192;2022-11-18T02:53:18;96853.31;;;8.94;100.00
41140;BME280;26881;48.784;9.192;2022-11-18T02:58:40;96862.47;;;8.88;100.00
41140;BME280;26881;48.784;9.192;2022-11-18T03:04:02;96867.81;;;8.75;100.00
41140;BME280;26881;48.784;9.192;2022-11-18T03:09:28;96881.94;;;8.61;100.00
41140;BME280;26881;48.784;9.192;2022-11-18T03:20:51;96901.56;;;8.88;100.00
41140;BME280;26881;48.784;9.192;2022-11-18T03:26:21;96911.38;;;8.96;100.00
41140;BME280;26881;48.784;9.192;2022-11-18T03:31:58;96910.41;;;9.08;100.00
41140;BME280;26881;48.784;9.192;2022-11-18T03:37:24;96926.41;;;9.03;100.00
41140;BME280;26881;48.784;9.192;2022-11-18T03:42:50;96943.28;;;8.88;100.00
41140;BME280;26881;48.784;9.192;2022-11-18T03:48:15;96950.63;;;8.94;100.00
41140;BME280;26881;48.784;9.192;2022-11-18T03:53:46;96955.34;;;9.00;100.00
41140;BME280;26881;48.784;9.192;2022-11-18T03:59:24;96968.63;;;8.97;100.00
41140;BME280;26881;48.784;9.192;2022-11-18T04:04:49;96970.28;;;8.98;100.00
41140;BME280;26881;48.784;9.192;2022-11-18T04:10:16;96968.75;;;8.96;100.00
41140;BME280;26881;48.784;9.192;2022-11-18T04:15:40;96979.19;;;8.84;100.00
41140;BME280;26881;48.784;9.192;2022-11-18T04:21:03;96981.31;;;8.57;100.00
41140;BME280;26881;48.784;9.192;2022-11-18T04:26:24;96982.38;;;8.54;100.00
41140;BME280;26881;48.784;9.192;2022-11-18T04:31:46;96990.31;;;8.41;100.00
41140;BME280;26881;48.784;9.192;2022-11-18T04:37:08;97000.59;;;8.43;100.00
41140;BME280;26881;48.784;9.192;2022-11-18T04:42:30;97001.44;;;8.55;100.00
41140;BME280;26881;48.784;9.192;2022-11-18T04:47:51;96996.94;;;8.68;100.00
41140;BME280;26881;48.784;9.192;2022-11-18T04:53:13;96997.78;;;8.69;100.00
41140;BME280;26881;48.784;9.192;2022-11-18T04:58:35;96998.88;;;8.31;100.00
41140;BME280;26881;48.784;9.192;2022-11-18T05:03:59;97009.03;;;8.22;100.00
41140;BME280;26881;48.784;9.192;2022-11-18T05:09:21;97019.59;;;8.21;100.00
41140;BME280;26881;48.784;9.192;2022-11-18T05:14:50;97023.50;;;8.27;100.00
41140;BME280;26881;48.784;9.192;2022-11-18T05:20:13;97024.47;;;8.37;100.00
41140;BME280;26881;48.784;9.192;2022-11-18T05:25:34;97028.84;;;8.36;100.00
41140;BME280;26881;48.784;9.192;2022-11-18T05:30:56;97027.09;;;8.37;100.00
41140;BME280;26881;48.784;9.192;2022-11-18T05:36:19;97028.78;;;8.14;100.00
41140;BME280;26881;48.784;9.192;2022-11-18T05:41:41;97042.03;;;8.11;100.00
41140;BME280;26881;48.784;9.192;2022-11-18T05:47:21;97043.56;;;8.13;100.00
41140;BME280;26881;48.784;9.192;2022-11-18T05:52:45;97055.38;;;8.06;100.00
41140;BME280;26881;48.784;9.192;2022-11-18T05:58:07;97064.13;;;8.05;100.00
41140;BME280;26881;48.784;9.192;2022-11-18T06:03:30;97061.63;;;8.03;100.00
41140;BME280;26881;48.784;9.192;2022-11-18T06:09:00;97071.00;;;8.06;100.00
41140;BME280;26881;48.784;9.192;2022-11-18T06:14:30;97076.53;;;8.01;100.00
41140;BME280;26881;48.784;9.192;2022-11-18T06:19:54;97077.34;;;7.91;100.00
41140;BME280;26881;48.784;9.192;2022-11-18T06:25:17;97082.03;;;7.86;100.00
41140;BME280;26881;48.784;9.192;2022-11-18T06:30:39;97086.06;;;7.90;100.00
41140;BME280;26881;48.784;9.192;2022-11-18T06:36:01;97097.44;;;7.89;100.00
41140;BME280;26881;48.784;9.192;2022-11-18T06:41:23;97103.03;;;7.95;100.00
41140;BME280;26881;48.784;9.192;2022-11-18T06:46:44;97104.75;;;7.84;100.00
41140;BME280;26881;48.784;9.192;2022-11-18T06:52:21;97113.16;;;7.87;100.00
41140;BME280;26881;48.784;9.192;2022-11-18T06:57:43;97119.94;;;8.14;100.00
41140;BME280;26881;48.784;9.192;2022-11-18T07:03:05;97121.84;;;7.99;100.00
41140;BME280;26881;48.784;9.192;2022-11-18T07:08:27;97125.41;;;7.98;100.00
41140;BME280;26881;48.784;9.192;2022-11-18T07:13:49;97137.97;;;8.04;100.00
41140;BME280;26881;48.784;9.192;2022-11-18T07:19:12;97147.69;;;8.02;100.00
41140;BME280;26881;48.784;9.192;2022-11-18T07:24:34;97154.88;;;8.22;100.00
41140;BME280;26881;48.784;9.192;2022-11-18T07:29:56;97155.06;;;8.32;100.00
41140;BME280;26881;48.784;9.192;2022-11-18T07:35:17;97161.38;;;8.17;100.00
41140;BME280;26881;48.784;9.192;2022-11-18T07:40:39;97171.13;;;8.26;100.00
41140;BME280;26881;48.784;9.192;2022-11-18T07:46:20;97174.78;;;8.23;100.00
41140;BME280;26881;48.784;9.192;2022-11-18T07:51:42;97182.03;;;8.31;100.00
41140;BME280;26881;48.784;9.192;2022-11-18T07:57:04;97182.03;;;8.44;100.00
41140;BME280;26881;48.784;9.192;2022-11-18T08:02:26;97190.81;;;8.54;100.00
41140;BME280;26881;48.784;9.192;2022-11-18T08:07:47;97209.88;;;8.55;100.00
41140;BME280;26881;48.784;9.192;2022-11-18T08:13:09;97209.69;;;8.58;100.00
41140;BME280;26881;48.784;9.192;2022-11-18T08:18:31;97217.84;;;8.53;100.00
41140;BME280;26881;48.784;9.192;2022-11-18T08:23:55;97229.28;;;8.51;100.00
41140;BME280;26881;48.784;9.192;2022-11-18T08:29:17;97232.53;;;8.54;100.00
41140;BME280;26881;48.784;9.192;2022-11-18T08:34:45;97244.41;;;8.58;100.00
41140;BME280;26881;48.784;9.192;2022-11-18T08:40:07;97240.41;;;8.65;100.00
41140;BME280;26881;48.784;9.192;2022-11-18T08:45:30;97246.88;;;8.60;100.00
41140;BME280;26881;48.784;9.192;2022-11-18T08:50:52;97251.75;;;8.64;100.00
41140;BME280;26881;48.784;9.192;2022-11-18T08:56:17;97250.31;;;8.60;100.00
41140;BME280;26881;48.784;9.192;2022-11-18T09:01:39;97256.53;;;8.71;100.00
41140;BME280;26881;48.784;9.192;2022-11-18T09:07:03;97258.50;;;8.67;100.00
41140;BME280;26881;48.784;9.192;2022-11-18T09:12:24;97267.63;;;8.61;100.00
41140;BME280;26881;48.784;9.192;2022-11-18T09:17:46;97262.84;;;8.79;100.00
41140;BME280;26881;48.784;9.192;2022-11-18T09:23:08;97278.59;;;8.78;100.00
41140;BME280;26881;48.784;9.192;2022-11-18T09:28:30;97273.44;;;8.89;100.00
41140;BME280;26881;48.784;9.192;2022-11-18T09:33:52;97289.75;;;8.80;100.00
41140;BME280;26881;48.784;9.192;2022-11-18T09:39:13;97287.25;;;8.78;100.00
41140;BME280;26881;48.784;9.192;2022-11-18T09:50:13;97297.59;;;8.67;100.00
41140;BME280;26881;48.784;9.192;2022-11-18T09:55:56;97305.81;;;8.74;100.00
41140;BME280;26881;48.784;9.192;2022-11-18T10:01:19;97310.94;;;8.75;100.00
41140;BME280;26881;48.784;9.192;2022-11-18T10:06:43;97311.03;;;8.74;100.00
41140;BME280;26881;48.784;9.192;2022-11-18T10:23:48;97321.25;;;8.77;100.00
41140;BME280;26881;48.784;9.192;2022-11-18T10:29:11;97326.03;;;8.83;100.00
41140;BME280;26881;48.784;9.192;2022-11-18T10:34:35;97333.13;;;8.81;100.00
41140;BME280;26881;48.784;9.192;2022-11-18T10:40:22;97329.41;;;8.96;100.00
41140;BME280;26881;48.784;9.192;2022-11-18T10:45:44;97331.78;;;8.99;100.00
41140;BME280;26881;48.784;9.192;2022-11-18T10:51:21;97331.84;;;9.11;100.00
41140;BME280;26881;48.784;9.192;2022-11-18T10:56:52;97335.81;;;9.16;100.00
41140;BME280;26881;48.784;9.192;2022-11-18T11:02:30;97334.75;;;9.19;100.00
41140;BME280;26881;48.784;9.192;2022-11-18T11:13:44;97344.59;;;9.26;100.00
41140;BME280;26881;48.784;9.192;2022-11-18T11:19:09;97347.44;;;9.23;100.00
41140;BME280;26881;48.784;9.192;2022-11-18T11:24:32;97355.81;;;9.16;100.00
41140;BME280;26881;48.784;9.192;2022-11-18T11:30:14;97358.75;;;9.35;100.00
41140;BME280;26881;48.784;9.192;2022-11-18T11:41:22;97343.16;;;9.58;100.00
41140;BME280;26881;48.784;9.192;2022-11-18T12:03:45;97364.06;;;9.69;100.00
41140;BME280;26881;48.784;9.192;2022-11-18T12:09:49;97358.50;;;9.74;100.00
41140;BME280;26881;48.784;9.192;2022-11-18T12:15:17;97353.19;;;9.75;100.00
41140;BME280;26881;48.784;9.192;2022-11-18T12:20:46;97376.53;;;9.65;100.00
41140;BME280;26881;48.784;9.192;2022-11-18T12:26:09;97364.31;;;9.66;97.40
41140;BME280;26881;48.784;9.192;2022-11-18T12:31:32;97373.22;;;9.63;100.00
41140;BME280;26881;48.784;9.192;2022-11-18T12:36:54;97384.56;;;9.62;98.26
41140;BME280;26881;48.784;9.192;2022-11-18T12:42:38;97381.34;;;9.47;98.31
41140;BME280;26881;48.784;9.192;2022-11-18T12:48:40;97380.16;;;9.52;97.94
41140;BME280;26881;48.784;9.192;2022-11-18T12:54:14;97383.50;;;9.54;97.15
41140;BME280;26881;48.784;9.192;2022-11-18T12:59:41;97383.72;;;9.50;100.00
41140;BME280;26881;48.784;9.192;2022-11-18T13:10:28;97397.94;;;9.46;100.00
41140;BME280;26881;48.784;9.192;2022-11-18T13:15:52;97393.94;;;9.54;100.00
41140;BME280;26881;48.784;9.192;2022-11-18T13:21:33;97388.38;;;9.58;100.00
41140;BME280;26881;48.784;9.192;2022-11-18T13:27:40;97391.34;;;9.65;100.00
41140;BME280;26881;48.784;9.192;2022-11-18T13:33:09;97393.97;;;9.65;100.00
41140;BME280;26881;48.784;9.192;2022-11-18T13:38:31;97398.69;;;9.60;100.00
41140;BME280;26881;48.784;9.192;2022-11-18T13:43:53;97382.34;;;9.69;98.75
41140;BME280;26881;48.784;9.192;2022-11-18T13:49:18;97389.84;;;9.74;99.37
41140;BME280;26881;48.784;9.192;2022-11-18T13:54:41;97395.00;;;9.86;97.95
41140;BME280;26881;48.784;9.192;2022-11-18T14:00:15;97402.09;;;9.84;94.33
41140;BME280;26881;48.784;9.192;2022-11-18T14:05:40;97392.41;;;9.98;91.78
41140;BME280;26881;48.784;9.192;2022-11-18T14:11:03;97394.13;;;9.86;96.23
41140;BME280;26881;48.784;9.192;2022-11-18T14:16:34;97404.81;;;9.83;97.06
41140;BME280;26881;48.784;9.192;2022-11-18T14:22:11;97400.31;;;9.85;90.90
41140;BME280;26881;48.784;9.192;2022-11-18T14:27:38;97413.50;;;9.95;92.70
41140;BME280;26881;48.784;9.192;2022-11-18T14:33:17;97417.09;;;9.94;90.74
41140;BME280;26881;48.784;9.192;2022-11-18T14:38:46;97424.34;;;10.01;90.57
41140;BME280;26881;48.784;9.192;2022-11-18T14:44:28;97420.41;;;9.96;91.86
41140;BME280;26881;48.784;9.192;2022-11-18T14:49:51;97422.03;;;9.85;92.69
41140;BME280;26881;48.784;9.192;2022-11-18T14:55:12;97428.66;;;9.78;91.38
41140;BME280;26881;48.784;9.192;2022-11-18T15:00:34;97425.47;;;9.75;92.02
41140;BME280;26881;48.784;9.192;2022-11-18T15:05:56;97427.13;;;9.76;90.71
41140;BME280;26881;48.784;9.192;2022-11-18T15:11:18;97439.28;;;9.64;91.02
41140;BME280;26881;48.784;9.192;2022-11-18T15:16:40;97437.25;;;9.56;92.01
41140;BME280;26881;48.784;9.192;2022-11-18T15:22:01;97452.69;;;9.59;91.78
41140;BME280;26881;48.784;9.192;2022-11-18T15:27:23;97461.81;;;9.54;91.06
41140;BME280;26881;48.784;9.192;2022-11-18T15:32:45;97471.38;;;9.53;91.31
41140;BME280;26881;48.784;9.192;2022-11-18T15:38:09;97473.63;;;9.46;92.54
41140;BME280;26881;48.784;9.192;2022-11-18T15:43:31;97483.91;;;9.61;89.93
41140;BME280;26881;48.784;9.192;2022-11-18T15:48:54;97482.22;;;9.60;91.84
41140;BME280;26881;48.784;9.192;2022-11-18T15:54:16;97477.16;;;9.45;92.27
41140;BME280;26881;48.784;9.192;2022-11-18T15:59:38;97477.75;;;9.25;94.26
41140;BME280;26881;48.784;9.192;2022-11-18T16:05:00;97482.88;;;9.26;93.92
41140;BME280;26881;48.784;9.192;2022-11-18T16:10:21;97485.59;;;9.25;95.04
41140;BME280;26881;48.784;9.192;2022-11-18T16:16:02;97492.81;;;9.21;96.35
41140;BME280;26881;48.784;9.192;2022-11-18T16:21:24;97482.81;;;9.15;94.91
41140;BME280;26881;48.784;9.192;2022-11-18T16:26:46;97496.25;;;9.22;95.68
41140;BME280;26881;48.784;9.192;2022-11-18T16:32:11;97492.00;;;9.08;94.58
41140;BME280;26881;48.784;9.192;2022-11-18T16:37:33;97501.28;;;9.12;94.83
41140;BME280;26881;48.784;9.192;2022-11-18T16:42:55;97498.03;;;9.08;94.78
41140;BME280;26881;48.784;9.192;2022-11-18T16:48:18;97505.38;;;9.03;94.27
41140;BME280;26881;48.784;9.192;2022-11-18T16:53:40;97514.34;;;8.99;93.87
41140;BME280;26881;48.784;9.192;2022-11-18T16:59:03;97516.84;;;9.01;92.75
41140;BME280;26881;48.784;9.192;2022-11-18T17:04:27;97513.28;;;9.02;92.94
41140;BME280;26881;48.784;9.192;2022-11-18T17:09:49;97531.84;;;8.97;94.11
41140;BME280;26881;48.784;9.192;2022-11-18T17:15:11;97539.69;;;8.97;94.39
41140;BME280;26881;48.784;9.192;2022-11-18T17:20:36;97541.47;;;9.10;93.25
41140;BME280;26881;48.784;9.192;2022-11-18T17:25:58;97554.91;;;9.03;91.38
41140;BME280;26881;48.784;9.192;2022-11-18T17:31:21;97553.91;;;8.93;92.13
41140;BME280;26881;48.784;9.192;2022-11-18T17:36:44;97564.09;;;8.96;93.52
41140;BME280;26881;48.784;9.192;2022-11-18T17:42:06;97560.53;;;8.97;93.68
41140;BME280;26881;48.784;9.192;2022-11-18T17:47:38;97560.25;;;8.89;93.34
41140;BME280;26881;48.784;9.192;2022-11-18T17:53:00;97566.72;;;8.83;94.84
41140;BME280;26881;48.784;9.192;2022-11-18T17:58:21;97565.88;;;8.83;95.63
41140;BME280;26881;48.784;9.192;2022-11-18T18:03:43;97567.84;;;8.92;96.78
41140;BME280;26881;48.784;9.192;2022-11-18T18:09:05;97572.97;;;8.81;95.12
41140;BME280;26881;48.784;9.192;2022-11-18T18:14:27;97576.41;;;8.69;95.57
41140;BME280;26881;48.784;9.192;2022-11-18T18:19:49;97580.78;;;8.68;95.07
41140;BME280;26881;48.784;9.192;2022-11-18T18:25:10;97581.63;;;8.69;94.37
41140;BME280;26881;48.784;9.192;2022-11-18T18:30:32;97583.50;;;8.67;95.11
41140;BME280;26881;48.784;9.192;2022-11-18T18:35:58;97596.31;;;8.57;93.36
41140;BME280;26881;48.784;9.192;2022-11-18T18:41:21;97599.63;;;8.46;94.63
41140;BME280;26881;48.784;9.192;2022-11-18T18:46:43;97602.03;;;8.49;95.70
41140;BME280;26881;48.784;9.192;2022-11-18T18:52:05;97599.34;;;8.23;95.65
41140;BME280;26881;48.784;9.192;2022-11-18T18:57:27;97600.38;;;8.21;94.52
41140;BME280;26881;48.784;9.192;2022-11-18T19:02:50;97603.00;;;8.34;95.38
41140;BME280;26881;48.784;9.192;2022-11-18T19:08:11;97616.19;;;8.18;91.90
41140;BME280;26881;48.784;9.192;2022-11-18T19:13:33;97613.69;;;8.16;92.98
41140;BME280;26881;48.784;9.192;2022-11-18T19:18:56;97610.38;;;8.27;91.87
41140;BME280;26881;48.784;9.192;2022-11-18T19:24:18;97615.41;;;8.30;91.09
41140;BME280;26881;48.784;9.192;2022-11-18T19:30:00;97633.44;;;8.33;91.82
41140;BME280;26881;48.784;9.192;2022-11-18T19:35:21;97644.81;;;8.32;89.73
41140;BME280;26881;48.784;9.192;2022-11-18T19:40:43;97640.50;;;8.31;90.48
41140;BME280;26881;48.784;9.192;2022-11-18T19:46:05;97643.41;;;8.27;92.03
41140;BME280;26881;48.784;9.192;2022-11-18T19:51:27;97633.50;;;8.19;93.22
41140;BME280;26881;48.784;9.192;2022-11-18T19:56:51;97634.53;;;8.16;90.13
41140;BME280;26881;48.784;9.192;2022-11-18T20:02:13;97629.03;;;8.21;89.98
41140;BME280;26881;48.784;9.192;2022-11-18T20:07:34;97632.91;;;8.28;90.77
41140;BME280;26881;48.784;9.192;2022-11-18T20:12:56;97623.09;;;8.32;90.38
41140;BME280;26881;48.784;9.192;2022-11-18T20:18:18;97633.66;;;8.30;90.00
41140;BME280;26881;48.784;9.192;2022-11-18T20:23:42;97636.03;;;8.33;90.62
41140;BME280;26881;48.784;9.192;2022-11-18T20:29:06;97642.91;;;8.34;91.96
41140;BME280;26881;48.784;9.192;2022-11-18T20:34:28;97635.66;;;8.39;92.52
41140;BME280;26881;48.784;9.192;2022-11-18T20:39:49;97632.91;;;8.28;91.37
41140;BME280;26881;48.784;9.192;2022-11-18T20:45:11;97631.63;;;8.48;92.25
41140;BME280;26881;48.784;9.192;2022-11-18T20:50:37;97630.94;;;8.59;90.21
41140;BME280;26881;48.784;9.192;2022-11-18T20:55:59;97633.44;;;8.60;89.37
41140;BME280;26881;48.784;9.192;2022-11-18T21:01:23;97636.56;;;8.65;88.57
41140;BME280;26881;48.784;9.192;2022-11-18T21:06:45;97646.16;;;8.65;89.83
41140;BME280;26881;48.784;9.192;2022-11-18T21:12:08;97654.91;;;8.51;89.83
41140;BME280;26881;48.784;9.192;2022-11-18T21:17:30;97666.97;;;8.52;90.83
41140;BME280;26881;48.784;9.192;2022-11-18T21:22:51;97656.25;;;8.57;90.43
41140;BME280;26881;48.784;9.192;2022-11-18T21:28:13;97663.44;;;8.53;89.66
41140;BME280;26881;48.784;9.192;2022-11-18T21:33:35;97668.66;;;8.53;90.57
41140;BME280;26881;48.784;9.192;2022-11-18T21:38:57;97667.78;;;8.40;90.89
41140;BME280;26881;48.784;9.192;2022-11-18T21:44:19;97668.34;;;8.31;91.69
41140;BME280;26881;48.784;9.192;2022-11-18T21:49:41;97674.00;;;8.37;92.48
41140;BME280;26881;48.784;9.192;2022-11-18T21:55:03;97676.25;;;8.29;93.17
41140;BME280;26881;48.784;9.192;2022-11-18T22:00:25;97673.06;;;8.11;95.08
41140;BME280;26881;48.784;9.192;2022-11-18T22:05:47;97689.91;;;8.06;95.64
41140;BME280;26881;48.784;9.192;2022-11-18T22:11:11;97694.81;;;8.10;97.97
41140;BME280;26881;48.784;9.192;2022-11-18T22:16:33;97689.22;;;8.16;97.37
41140;BME280;26881;48.784;9.192;2022-11-18T22:21:55;97698.81;;;8.01;97.44
41140;BME280;26881;48.784;9.192;2022-11-18T22:27:17;97702.44;;;8.13;99.83
41140;BME280;26881;48.784;9.192;2022-11-18T22:32:38;97704.91;;;8.29;100.00
41140;BME280;26881;48.784;9.192;2022-11-18T22:38:00;97703.53;;;8.23;100.00
41140;BME280;26881;48.784;9.192;2022-11-18T22:43:22;97712.34;;;7.94;100.00
41140;BME280;26881;48.784;9.192;2022-11-18T22:48:44;97712.53;;;7.91;100.00
41140;BME280;26881;48.784;9.192;2022-11-18T22:54:06;97716.25;;;7.87;100.00
41140;BME280;26881;48.784;9.192;2022-11-18T22:59:48;97716.63;;;7.80;100.00
41140;BME280;26881;48.784;9.192;2022-11-18T23:05:10;97715.41;;;7.86;100.00
41140;BME280;26881;48.784;9.192;2022-11-18T23:10:32;97707.63;;;7.72;100.00
41140;BME280;26881;48.784;9.192;2022-11-18T23:15:57;97713.59;;;7.74;100.00
41140;BME280;26881;48.784;9.192;2022-11-18T23:21:19;97714.22;;;7.77;100.00
41140;BME280;26881;48.784;9.192;2022-11-18T23:26:42;97716.16;;;7.88;100.00
41140;BME280;26881;48.784;9.192;2022-11-18T23:32:04;97723.13;;;7.73;100.00
41140;BME280;26881;48.784;9.192;2022-11-18T23:37:25;97721.25;;;7.90;100.00
41140;BME280;26881;48.784;9.192;2022-11-18T23:42:47;97718.19;;;7.97;100.00
41140;BME280;26881;48.784;9.192;2022-11-18T23:48:09;97713.38;;;7.77;100.00
41140;BME280;26881;48.784;9.192;2022-11-18T23:53:32;97708.25;;;7.75;100.00
41140;BME280;26881;48.784;9.192;2022-11-18T23:58:56;97709.56;;;7.82;100.00
